Needles, CA (92363)

5:14 PM PST on December 09, 2016 (GMT -0800)
WA6GDF Colorado River near Needles Bridge | | Change Station

Elev 479 ft 34.85 °N, 114.60 °W | Updated 8 minutes ago

Clear
Clear
59.8 °F
Feels Like 59.8 °F
N
2.0
Wind Variable Wind from NNE
Gusts 6.0 mph

Today
High -- | Low -- °F
--% Chance of Precip.
Yesterday
High -- | Low -- °F
Precip. -- in
Pressure 30.14 in
Visibility 10.0 miles
Clouds Clear
Dew Point 25 °F
Humidity 26%
Rainfall 0.00 in
Snow Depth Not available.
6:34 AM 4:27 PM
Waxing Gibbous, 79% visible
METAR KEED 100056Z AUTO 33006KT 10SM CLR 16/M08 A3018 RMK AO2 SLP206 T01611078
Pressure 30.14 in
Visibility 10.0 miles
Clouds Clear
Dew Point 25 °F
Humidity 26%
Rainfall 0.00 in
Snow Depth Not available.
6:34 AM 4:27 PM
Waxing Gibbous, 79% visible
METAR KEED 100056Z AUTO 33006KT 10SM CLR 16/M08 A3018 RMK AO2 SLP206 T01611078

10-Day Weather Forecast

Almanac

Astronomy

Dec. 09, 2016 Rise Set
Actual Time
Civil Twilight
Nautical Twilight
Astronomical Twilight
Moon
Length of Visible Light
Length of Day
Tomorrow will be .
, % of the Moon is Illuminated

Today's Extremes

State Highs State Lows

Community

WunderPhotos

Upload Photos

1,956,534 photos uploaded!

WunderBlog® & News

Nearby

Air Quality

  Air Quality AQ Index Pollutant
Not available.

Snow Depth

Station Depth Elevation

Earthquake Activity

City Distance Mag. Time & Date
Minimum magnitude displayed is 2.5.

Coastal Water Temperatures

Place Temperature

Stations

Nearby Weather Stations

Station Location Temp. Windchill Dew Point Humidity Wind Precip. Elev Updated Type
                   

Watches & Warnings

There are currently no watches in effect.